sensor_id;sensor_type;location;lat;lon;timestamp;pressure;altitude;pressure_sealevel;temperature;humidity
42945;BME280;28584;42.636;23.294;2023-02-08T00:00:10;156648.44;;;-7.26;100.00
42945;BME280;28584;42.636;23.294;2023-02-08T00:02:36;156645.75;;;-7.27;100.00
42945;BME280;28584;42.636;23.294;2023-02-08T00:05:01;156653.66;;;-7.24;100.00
42945;BME280;28584;42.636;23.294;2023-02-08T00:07:27;156647.09;;;-7.26;100.00
42945;BME280;28584;42.636;23.294;2023-02-08T00:09:52;156637.88;;;-7.30;100.00
42945;BME280;28584;42.636;23.294;2023-02-08T00:12:18;156651.03;;;-7.25;100.00
42945;BME280;28584;42.636;23.294;2023-02-08T00:14:43;156653.66;;;-7.24;100.00
42945;BME280;28584;42.636;23.294;2023-02-08T00:17:09;156648.44;;;-7.26;100.00
42945;BME280;28584;42.636;23.294;2023-02-08T00:19:34;156651.03;;;-7.25;100.00
42945;BME280;28584;42.636;23.294;2023-02-08T00:21:59;156643.16;;;-7.28;100.00
42945;BME280;28584;42.636;23.294;2023-02-08T00:24:25;156639.19;;;-7.29;100.00
42945;BME280;28584;42.636;23.294;2023-02-08T00:26:50;156627.34;;;-7.34;100.00
42945;BME280;28584;42.636;23.294;2023-02-08T00:29:15;156635.25;;;-7.31;100.00
42945;BME280;28584;42.636;23.294;2023-02-08T00:31:41;156641.81;;;-7.28;100.00
42945;BME280;28584;42.636;23.294;2023-02-08T00:34:06;156637.88;;;-7.30;100.00
42945;BME280;28584;42.636;23.294;2023-02-08T00:36:31;156630.00;;;-7.33;100.00
42945;BME280;28584;42.636;23.294;2023-02-08T00:38:57;156643.16;;;-7.28;100.00
42945;BME280;28584;42.636;23.294;2023-02-08T00:41:22;156649.72;;;-7.25;100.00
42945;BME280;28584;42.636;23.294;2023-02-08T00:43:47;156660.22;;;-7.21;100.00
42945;BME280;28584;42.636;23.294;2023-02-08T00:46:13;156647.09;;;-7.26;100.00
42945;BME280;28584;42.636;23.294;2023-02-08T00:48:38;156657.63;;;-7.22;100.00
42945;BME280;28584;42.636;23.294;2023-02-08T00:51:09;156651.03;;;-7.25;100.00
42945;BME280;28584;42.636;23.294;2023-02-08T00:53:39;156660.22;;;-7.21;100.00
42945;BME280;28584;42.636;23.294;2023-02-08T00:56:06;156652.38;;;-7.24;100.00
42945;BME280;28584;42.636;23.294;2023-02-08T00:58:32;156651.03;;;-7.25;100.00
42945;BME280;28584;42.636;23.294;2023-02-08T01:00:59;156643.16;;;-7.28;100.00
42945;BME280;28584;42.636;23.294;2023-02-08T01:03:25;156652.38;;;-7.24;100.00
42945;BME280;28584;42.636;23.294;2023-02-08T01:05:51;156651.03;;;-7.25;100.00
42945;BME280;28584;42.636;23.294;2023-02-08T01:08:16;156647.09;;;-7.26;100.00
42945;BME280;28584;42.636;23.294;2023-02-08T01:10:43;156643.16;;;-7.28;100.00
42945;BME280;28584;42.636;23.294;2023-02-08T01:13:09;156657.63;;;-7.22;100.00
42945;BME280;28584;42.636;23.294;2023-02-08T01:15:34;156651.03;;;-7.25;100.00
42945;BME280;28584;42.636;23.294;2023-02-08T01:18:00;156658.94;;;-7.22;100.00
42945;BME280;28584;42.636;23.294;2023-02-08T01:20:25;156660.22;;;-7.21;100.00
42945;BME280;28584;42.636;23.294;2023-02-08T01:22:51;156656.28;;;-7.23;100.00
42945;BME280;28584;42.636;23.294;2023-02-08T01:25:16;156653.66;;;-7.24;100.00
42945;BME280;28584;42.636;23.294;2023-02-08T01:27:42;156664.19;;;-7.20;100.00
42945;BME280;28584;42.636;23.294;2023-02-08T01:30:08;156661.56;;;-7.21;100.00
42945;BME280;28584;42.636;23.294;2023-02-08T01:32:34;156655.00;;;-7.23;100.00
42945;BME280;28584;42.636;23.294;2023-02-08T01:35:00;156657.63;;;-7.22;100.00
42945;BME280;28584;42.636;23.294;2023-02-08T01:37:25;156648.44;;;-7.26;100.00
42945;BME280;28584;42.636;23.294;2023-02-08T01:39:50;156656.28;;;-7.23;100.00
42945;BME280;28584;42.636;23.294;2023-02-08T01:42:17;156648.44;;;-7.26;100.00
42945;BME280;28584;42.636;23.294;2023-02-08T01:47:40;156649.72;;;-7.25;100.00
42945;BME280;28584;42.636;23.294;2023-02-08T01:50:05;156645.75;;;-7.27;100.00
42945;BME280;28584;42.636;23.294;2023-02-08T01:52:31;156661.56;;;-7.21;100.00
42945;BME280;28584;42.636;23.294;2023-02-08T01:55:01;156653.66;;;-7.24;100.00
42945;BME280;28584;42.636;23.294;2023-02-08T01:57:27;156644.47;;;-7.27;100.00
42945;BME280;28584;42.636;23.294;2023-02-08T02:00:00;156653.66;;;-7.24;100.00
42945;BME280;28584;42.636;23.294;2023-02-08T02:02:27;156662.91;;;-7.20;100.00
42945;BME280;28584;42.636;23.294;2023-02-08T02:04:53;156648.44;;;-7.26;100.00
42945;BME280;28584;42.636;23.294;2023-02-08T02:07:21;156647.09;;;-7.26;100.00
42945;BME280;28584;42.636;23.294;2023-02-08T02:09:56;156656.28;;;-7.23;100.00
42945;BME280;28584;42.636;23.294;2023-02-08T02:12:23;156669.47;;;-7.18;100.00
42945;BME280;28584;42.636;23.294;2023-02-08T02:14:49;156655.00;;;-7.23;100.00
42945;BME280;28584;42.636;23.294;2023-02-08T02:17:17;156658.94;;;-7.22;100.00
42945;BME280;28584;42.636;23.294;2023-02-08T02:20:10;156678.66;;;-7.14;100.00
42945;BME280;28584;42.636;23.294;2023-02-08T02:25:34;156657.63;;;-7.22;100.00
42945;BME280;28584;42.636;23.294;2023-02-08T02:31:10;156640.53;;;-7.29;100.00
42945;BME280;28584;42.636;23.294;2023-02-08T02:34:08;156651.03;;;-7.25;100.00
42945;BME280;28584;42.636;23.294;2023-02-08T02:39:25;156630.00;;;-7.33;100.00
42945;BME280;28584;42.636;23.294;2023-02-08T02:48:09;156631.28;;;-7.32;100.00
42945;BME280;28584;42.636;23.294;2023-02-08T02:50:42;156616.81;;;-7.38;100.00
42945;BME280;28584;42.636;23.294;2023-02-08T02:53:17;156619.44;;;-7.37;100.00
42945;BME280;28584;42.636;23.294;2023-02-08T02:55:50;156612.88;;;-7.39;100.00
42945;BME280;28584;42.636;23.294;2023-02-08T02:58:20;156618.16;;;-7.37;100.00
42945;BME280;28584;42.636;23.294;2023-02-08T03:00:55;156612.88;;;-7.39;100.00
42945;BME280;28584;42.636;23.294;2023-02-08T03:03:26;156616.81;;;-7.38;100.00
42945;BME280;28584;42.636;23.294;2023-02-08T03:06:00;156620.78;;;-7.36;100.00
42945;BME280;28584;42.636;23.294;2023-02-08T03:16:29;156610.25;;;-7.40;100.00
42945;BME280;28584;42.636;23.294;2023-02-08T03:19:09;156595.81;;;-7.46;100.00
42945;BME280;28584;42.636;23.294;2023-02-08T03:22:00;156597.09;;;-7.45;100.00
42945;BME280;28584;42.636;23.294;2023-02-08T03:24:32;156574.72;;;-7.54;100.00
42945;BME280;28584;42.636;23.294;2023-02-08T03:27:09;156569.47;;;-7.56;100.00
42945;BME280;28584;42.636;23.294;2023-02-08T03:30:13;156545.78;;;-7.65;100.00
42945;BME280;28584;42.636;23.294;2023-02-08T03:32:45;156516.88;;;-7.76;100.00
42945;BME280;28584;42.636;23.294;2023-02-08T03:37:52;156477.44;;;-7.91;100.00
42945;BME280;28584;42.636;23.294;2023-02-08T03:40:32;156465.59;;;-7.95;100.00
42945;BME280;28584;42.636;23.294;2023-02-08T03:43:06;156473.50;;;-7.92;100.00
42945;BME280;28584;42.636;23.294;2023-02-08T03:45:40;156491.91;;;-7.85;100.00
42945;BME280;28584;42.636;23.294;2023-02-08T03:48:08;156486.63;;;-7.87;100.00
42945;BME280;28584;42.636;23.294;2023-02-08T03:50:38;156501.06;;;-7.82;100.00
42945;BME280;28584;42.636;23.294;2023-02-08T03:53:05;156502.41;;;-7.81;100.00
42945;BME280;28584;42.636;23.294;2023-02-08T03:55:34;156506.34;;;-7.80;100.00
42945;BME280;28584;42.636;23.294;2023-02-08T03:58:19;156498.47;;;-7.83;100.00
42945;BME280;28584;42.636;23.294;2023-02-08T04:03:48;156480.06;;;-7.90;100.00
42945;BME280;28584;42.636;23.294;2023-02-08T04:06:18;156451.13;;;-8.01;100.00
42945;BME280;28584;42.636;23.294;2023-02-08T04:08:44;156449.81;;;-8.01;100.00
42945;BME280;28584;42.636;23.294;2023-02-08T04:11:09;156448.53;;;-8.02;100.00
42945;BME280;28584;42.636;23.294;2023-02-08T04:13:35;156445.84;;;-8.03;100.00
42945;BME280;28584;42.636;23.294;2023-02-08T04:16:00;156464.25;;;-7.96;100.00
42945;BME280;28584;42.636;23.294;2023-02-08T04:18:26;156476.09;;;-7.91;100.00
42945;BME280;28584;42.636;23.294;2023-02-08T04:20:51;156493.22;;;-7.85;100.00
42945;BME280;28584;42.636;23.294;2023-02-08T04:23:16;156501.06;;;-7.82;100.00
42945;BME280;28584;42.636;23.294;2023-02-08T04:25:42;156506.34;;;-7.80;100.00
42945;BME280;28584;42.636;23.294;2023-02-08T04:28:07;156506.34;;;-7.80;100.00
42945;BME280;28584;42.636;23.294;2023-02-08T04:30:33;156505.03;;;-7.80;100.00
42945;BME280;28584;42.636;23.294;2023-02-08T04:32:58;156519.47;;;-7.75;100.00
42945;BME280;28584;42.636;23.294;2023-02-08T04:35:24;156523.44;;;-7.73;100.00
42945;BME280;28584;42.636;23.294;2023-02-08T04:37:49;156518.19;;;-7.75;100.00
42945;BME280;28584;42.636;23.294;2023-02-08T04:40:15;156518.19;;;-7.75;100.00
42945;BME280;28584;42.636;23.294;2023-02-08T04:42:40;156534.00;;;-7.69;100.00
42945;BME280;28584;42.636;23.294;2023-02-08T04:45:06;156520.81;;;-7.74;100.00
42945;BME280;28584;42.636;23.294;2023-02-08T04:47:32;156527.38;;;-7.72;100.00
42945;BME280;28584;42.636;23.294;2023-02-08T04:49:57;156495.84;;;-7.84;100.00
42945;BME280;28584;42.636;23.294;2023-02-08T04:52:22;156480.06;;;-7.90;100.00
42945;BME280;28584;42.636;23.294;2023-02-08T04:54:48;156449.81;;;-8.01;100.00
42945;BME280;28584;42.636;23.294;2023-02-08T04:57:13;156415.63;;;-8.14;100.00
42945;BME280;28584;42.636;23.294;2023-02-08T04:59:39;156372.31;;;-8.31;100.00
42945;BME280;28584;42.636;23.294;2023-02-08T05:02:05;156374.97;;;-8.30;100.00
42945;BME280;28584;42.636;23.294;2023-02-08T05:04:30;156363.13;;;-8.34;100.00
42945;BME280;28584;42.636;23.294;2023-02-08T05:06:57;156355.25;;;-8.37;100.00
42945;BME280;28584;42.636;23.294;2023-02-08T05:09:22;156355.25;;;-8.37;100.00
42945;BME280;28584;42.636;23.294;2023-02-08T05:11:48;156373.63;;;-8.30;100.00
42945;BME280;28584;42.636;23.294;2023-02-08T05:14:13;156394.66;;;-8.22;100.00
42945;BME280;28584;42.636;23.294;2023-02-08T05:16:38;156406.44;;;-8.18;100.00
42945;BME280;28584;42.636;23.294;2023-02-08T05:19:04;156419.56;;;-8.13;100.00
42945;BME280;28584;42.636;23.294;2023-02-08T05:21:29;156437.97;;;-8.06;100.00
42945;BME280;28584;42.636;23.294;2023-02-08T05:23:55;156456.38;;;-7.99;100.00
42945;BME280;28584;42.636;23.294;2023-02-08T05:26:20;156456.38;;;-7.99;100.00
42945;BME280;28584;42.636;23.294;2023-02-08T05:28:46;156462.97;;;-7.96;100.00
42945;BME280;28584;42.636;23.294;2023-02-08T05:31:17;156485.34;;;-7.88;100.00
42945;BME280;28584;42.636;23.294;2023-02-08T05:33:43;156498.47;;;-7.83;100.00
42945;BME280;28584;42.636;23.294;2023-02-08T05:36:09;156508.97;;;-7.79;100.00
42945;BME280;28584;42.636;23.294;2023-02-08T05:38:35;156501.06;;;-7.82;100.00
42945;BME280;28584;42.636;23.294;2023-02-08T05:41:00;156514.25;;;-7.77;100.00
42945;BME280;28584;42.636;23.294;2023-02-08T05:43:26;156520.81;;;-7.74;100.00
42945;BME280;28584;42.636;23.294;2023-02-08T05:45:51;156493.22;;;-7.85;100.00
42945;BME280;28584;42.636;23.294;2023-02-08T05:48:17;156495.84;;;-7.84;100.00
42945;BME280;28584;42.636;23.294;2023-02-08T05:50:42;156484.00;;;-7.88;100.00
42945;BME280;28584;42.636;23.294;2023-02-08T05:53:08;156485.34;;;-7.88;100.00
42945;BME280;28584;42.636;23.294;2023-02-08T05:55:33;156493.22;;;-7.85;100.00
42945;BME280;28584;42.636;23.294;2023-02-08T05:57:59;156499.78;;;-7.82;100.00
42945;BME280;28584;42.636;23.294;2023-02-08T06:00:25;156507.69;;;-7.79;100.00
42945;BME280;28584;42.636;23.294;2023-02-08T06:02:50;156516.88;;;-7.76;100.00
42945;BME280;28584;42.636;23.294;2023-02-08T06:05:16;156573.44;;;-7.54;100.00
42945;BME280;28584;42.636;23.294;2023-02-08T06:07:41;156644.47;;;-7.27;100.00
42945;BME280;28584;42.636;23.294;2023-02-08T06:10:07;156727.34;;;-6.96;100.00
42945;BME280;28584;42.636;23.294;2023-02-08T06:12:32;156820.81;;;-6.60;100.00
42945;BME280;28584;42.636;23.294;2023-02-08T06:14:58;156916.91;;;-6.24;100.00
42945;BME280;28584;42.636;23.294;2023-02-08T06:17:23;157031.47;;;-5.80;100.00
42945;BME280;28584;42.636;23.294;2023-02-08T06:19:48;157154.00;;;-5.33;100.00
42945;BME280;28584;42.636;23.294;2023-02-08T06:22:14;157193.53;;;-5.18;100.00
42945;BME280;28584;42.636;23.294;2023-02-08T06:24:39;157172.47;;;-5.26;100.00
42945;BME280;28584;42.636;23.294;2023-02-08T06:27:05;157132.94;;;-5.41;100.00
42945;BME280;28584;42.636;23.294;2023-02-08T06:29:30;157151.41;;;-5.34;100.00
42945;BME280;28584;42.636;23.294;2023-02-08T06:31:55;157190.91;;;-5.19;100.00
42945;BME280;28584;42.636;23.294;2023-02-08T06:34:21;157288.50;;;-4.82;100.00
42945;BME280;28584;42.636;23.294;2023-02-08T06:36:46;157325.41;;;-4.68;100.00
42945;BME280;28584;42.636;23.294;2023-02-08T06:39:12;157342.53;;;-4.62;100.00
42945;BME280;28584;42.636;23.294;2023-02-08T06:41:37;157301.66;;;-4.77;100.00
42945;BME280;28584;42.636;23.294;2023-02-08T06:44:02;157287.16;;;-4.83;100.00
42945;BME280;28584;42.636;23.294;2023-02-08T06:46:28;157375.50;;;-4.49;100.00
42945;BME280;28584;42.636;23.294;2023-02-08T06:48:53;157479.72;;;-4.10;100.00
42945;BME280;28584;42.636;23.294;2023-02-08T06:51:20;157235.75;;;-5.02;100.00
42945;BME280;28584;42.636;23.294;2023-02-08T06:53:45;157052.53;;;-5.72;100.00
42945;BME280;28584;42.636;23.294;2023-02-08T06:56:10;156972.22;;;-6.03;100.00
42945;BME280;28584;42.636;23.294;2023-02-08T06:58:36;157061.78;;;-5.68;100.00
42945;BME280;28584;42.636;23.294;2023-02-08T07:01:02;157006.50;;;-5.90;100.00
42945;BME280;28584;42.636;23.294;2023-02-08T07:03:27;157006.50;;;-5.90;100.00
42945;BME280;28584;42.636;23.294;2023-02-08T07:05:53;157065.72;;;-5.67;100.00
42945;BME280;28584;42.636;23.294;2023-02-08T07:08:18;157032.78;;;-5.80;100.00
42945;BME280;28584;42.636;23.294;2023-02-08T07:10:43;156940.66;;;-6.15;100.00
42945;BME280;28584;42.636;23.294;2023-02-08T07:13:09;157043.31;;;-5.76;100.00
42945;BME280;28584;42.636;23.294;2023-02-08T07:15:34;157096.03;;;-5.55;100.00
42945;BME280;28584;42.636;23.294;2023-02-08T07:18:00;157256.81;;;-4.94;100.00
42945;BME280;28584;42.636;23.294;2023-02-08T07:20:25;157254.19;;;-4.95;100.00
42945;BME280;28584;42.636;23.294;2023-02-08T07:22:51;157225.19;;;-5.06;100.00
42945;BME280;28584;42.636;23.294;2023-02-08T07:25:16;157368.91;;;-4.52;100.00
42945;BME280;28584;42.636;23.294;2023-02-08T07:27:41;157288.50;;;-4.82;100.00
42945;BME280;28584;42.636;23.294;2023-02-08T07:30:07;157284.53;;;-4.84;100.00
42945;BME280;28584;42.636;23.294;2023-02-08T07:32:34;157380.81;;;-4.47;100.00
42945;BME280;28584;42.636;23.294;2023-02-08T07:34:59;157475.78;;;-4.11;100.00
42945;BME280;28584;42.636;23.294;2023-02-08T07:37:25;157585.34;;;-3.70;100.00
42945;BME280;28584;42.636;23.294;2023-02-08T07:39:51;157733.19;;;-3.14;100.00
42945;BME280;28584;42.636;23.294;2023-02-08T07:42:16;157584.00;;;-3.70;100.00
42945;BME280;28584;42.636;23.294;2023-02-08T07:44:42;157788.66;;;-2.93;100.00
42945;BME280;28584;42.636;23.294;2023-02-08T07:47:07;157560.28;;;-3.79;100.00
42945;BME280;28584;42.636;23.294;2023-02-08T07:49:33;157549.66;;;-3.83;100.00
42945;BME280;28584;42.636;23.294;2023-02-08T07:51:59;157832.25;;;-2.76;100.00
42945;BME280;28584;42.636;23.294;2023-02-08T07:54:25;158041.06;;;-1.97;97.33
42945;BME280;28584;42.636;23.294;2023-02-08T07:56:51;158041.06;;;-1.97;90.08
42945;BME280;28584;42.636;23.294;2023-02-08T07:59:17;158137.59;;;-1.60;88.72
42945;BME280;28584;42.636;23.294;2023-02-08T08:01:42;158304.25;;;-0.97;84.40
42945;BME280;28584;42.636;23.294;2023-02-08T08:04:08;158009.38;;;-2.09;77.08
42945;BME280;28584;42.636;23.294;2023-02-08T08:06:33;157741.13;;;-3.11;78.76
42945;BME280;28584;42.636;23.294;2023-02-08T08:08:59;157620.97;;;-3.56;93.76
42945;BME280;28584;42.636;23.294;2023-02-08T08:11:24;157823.03;;;-2.79;97.51
42945;BME280;28584;42.636;23.294;2023-02-08T08:13:50;158037.09;;;-1.98;91.37
42945;BME280;28584;42.636;23.294;2023-02-08T08:16:15;158255.34;;;-1.16;84.31
42945;BME280;28584;42.636;23.294;2023-02-08T08:18:41;158092.63;;;-1.77;74.90
42945;BME280;28584;42.636;23.294;2023-02-08T08:21:07;158183.91;;;-1.43;78.65
42945;BME280;28584;42.636;23.294;2023-02-08T08:23:32;158374.44;;;-0.71;74.09
42945;BME280;28584;42.636;23.294;2023-02-08T08:25:58;158549.19;;;-0.05;70.14
42945;BME280;28584;42.636;23.294;2023-02-08T08:28:25;158520.06;;;-0.16;65.64
42945;BME280;28584;42.636;23.294;2023-02-08T08:30:50;158681.63;;;0.46;64.26
42945;BME280;28584;42.636;23.294;2023-02-08T08:33:15;158716.09;;;0.59;61.43
42945;BME280;28584;42.636;23.294;2023-02-08T08:35:41;158653.84;;;0.35;59.97
42945;BME280;28584;42.636;23.294;2023-02-08T08:38:08;158655.13;;;0.36;58.89
42945;BME280;28584;42.636;23.294;2023-02-08T08:40:33;158686.94;;;0.48;58.53
42945;BME280;28584;42.636;23.294;2023-02-08T08:42:59;158595.50;;;0.13;57.00
42945;BME280;28584;42.636;23.294;2023-02-08T08:45:24;158358.53;;;-0.77;56.37
42945;BME280;28584;42.636;23.294;2023-02-08T08:47:49;158174.63;;;-1.46;57.13
42945;BME280;28584;42.636;23.294;2023-02-08T08:50:15;158062.25;;;-1.89;58.60
42945;BME280;28584;42.636;23.294;2023-02-08T08:52:40;158072.81;;;-1.85;59.84
42945;BME280;28584;42.636;23.294;2023-02-08T08:55:07;157916.84;;;-2.44;62.72
42945;BME280;28584;42.636;23.294;2023-02-08T08:57:32;158021.28;;;-2.04;64.97
42945;BME280;28584;42.636;23.294;2023-02-08T08:59:57;158006.69;;;-2.10;63.85
42945;BME280;28584;42.636;23.294;2023-02-08T09:02:23;158034.47;;;-1.99;64.64
42945;BME280;28584;42.636;23.294;2023-02-08T09:04:48;157729.25;;;-3.15;65.19
42945;BME280;28584;42.636;23.294;2023-02-08T09:07:14;157852.09;;;-2.68;67.92
42945;BME280;28584;42.636;23.294;2023-02-08T09:09:39;157848.13;;;-2.70;68.27
42945;BME280;28584;42.636;23.294;2023-02-08T09:12:06;157846.78;;;-2.70;68.29
42945;BME280;28584;42.636;23.294;2023-02-08T09:14:31;157771.50;;;-2.99;69.57
42945;BME280;28584;42.636;23.294;2023-02-08T09:16:57;157722.63;;;-3.18;71.72
42945;BME280;28584;42.636;23.294;2023-02-08T09:19:22;157704.16;;;-3.25;75.83
42945;BME280;28584;42.636;23.294;2023-02-08T09:21:48;157750.34;;;-3.07;79.75
42945;BME280;28584;42.636;23.294;2023-02-08T09:24:13;157807.16;;;-2.86;82.01
42945;BME280;28584;42.636;23.294;2023-02-08T09:26:38;157828.28;;;-2.78;83.63
42945;BME280;28584;42.636;23.294;2023-02-08T09:29:05;157797.94;;;-2.89;83.66
42945;BME280;28584;42.636;23.294;2023-02-08T09:31:32;157793.97;;;-2.91;84.02
42945;BME280;28584;42.636;23.294;2023-02-08T09:34:00;157809.78;;;-2.85;84.32
42945;BME280;28584;42.636;23.294;2023-02-08T09:36:28;157856.06;;;-2.67;82.08
42945;BME280;28584;42.636;23.294;2023-02-08T09:39:05;157889.06;;;-2.54;80.53
42945;BME280;28584;42.636;23.294;2023-02-08T09:45:36;157974.97;;;-2.22;76.59
42945;BME280;28584;42.636;23.294;2023-02-08T09:50:18;157969.66;;;-2.24;72.88
42945;BME280;28584;42.636;23.294;2023-02-08T09:53:01;157974.97;;;-2.22;74.38
42945;BME280;28584;42.636;23.294;2023-02-08T10:14:00;157959.09;;;-2.28;75.10
42945;BME280;28584;42.636;23.294;2023-02-08T10:35:05;158064.88;;;-1.88;74.76
42945;BME280;28584;42.636;23.294;2023-02-08T10:37:36;158112.47;;;-1.70;71.84
42945;BME280;28584;42.636;23.294;2023-02-08T10:42:47;158087.38;;;-1.79;69.31
42945;BME280;28584;42.636;23.294;2023-02-08T10:45:24;157940.59;;;-2.35;67.81
42945;BME280;28584;42.636;23.294;2023-02-08T10:47:54;157887.72;;;-2.55;68.82
42945;BME280;28584;42.636;23.294;2023-02-08T10:50:26;157834.94;;;-2.75;69.42
42945;BME280;28584;42.636;23.294;2023-02-08T10:52:55;157930.03;;;-2.39;69.85
42945;BME280;28584;42.636;23.294;2023-02-08T10:55:21;157980.28;;;-2.20;68.41
42945;BME280;28584;42.636;23.294;2023-02-08T11:04:26;158119.06;;;-1.67;65.50
42945;BME280;28584;42.636;23.294;2023-02-08T11:06:52;158251.38;;;-1.17;64.28
42945;BME280;28584;42.636;23.294;2023-02-08T11:11:50;158299.00;;;-0.99;61.23
42945;BME280;28584;42.636;23.294;2023-02-08T11:14:22;158313.53;;;-0.94;61.30
42945;BME280;28584;42.636;23.294;2023-02-08T11:16:51;158431.31;;;-0.49;60.30
42945;BME280;28584;42.636;23.294;2023-02-08T11:19:29;158484.28;;;-0.29;59.85
42945;BME280;28584;42.636;23.294;2023-02-08T11:21:56;158570.34;;;0.03;59.33
42945;BME280;28584;42.636;23.294;2023-02-08T11:24:27;158612.75;;;0.20;57.73
42945;BME280;28584;42.636;23.294;2023-02-08T11:26:54;158622.00;;;0.23;57.21
42945;BME280;28584;42.636;23.294;2023-02-08T11:29:24;158576.97;;;0.06;55.99
42945;BME280;28584;42.636;23.294;2023-02-08T11:31:58;158367.78;;;-0.73;58.09
42945;BME280;28584;42.636;23.294;2023-02-08T11:34:36;158419.44;;;-0.54;59.54
42945;BME280;28584;42.636;23.294;2023-02-08T11:37:13;158396.94;;;-0.62;60.01
42945;BME280;28584;42.636;23.294;2023-02-08T11:39:42;158265.91;;;-1.12;59.47
42945;BME280;28584;42.636;23.294;2023-02-08T11:42:40;158174.63;;;-1.46;60.48
42945;BME280;28584;42.636;23.294;2023-02-08T11:45:04;157988.19;;;-2.17;64.15
42945;BME280;28584;42.636;23.294;2023-02-08T11:47:35;157992.16;;;-2.15;67.60
42945;BME280;28584;42.636;23.294;2023-02-08T11:50:04;157916.84;;;-2.44;70.04
42945;BME280;28584;42.636;23.294;2023-02-08T11:52:36;157890.41;;;-2.54;77.19
42945;BME280;28584;42.636;23.294;2023-02-08T12:00:26;157840.19;;;-2.73;87.23
42945;BME280;28584;42.636;23.294;2023-02-08T12:03:10;157910.19;;;-2.46;85.07
42945;BME280;28584;42.636;23.294;2023-02-08T12:31:17;157650.00;;;-3.45;100.00
42945;BME280;28584;42.636;23.294;2023-02-08T12:50:12;157679.06;;;-3.34;88.83
42945;BME280;28584;42.636;23.294;2023-02-08T12:52:47;157656.63;;;-3.43;88.24
42945;BME280;28584;42.636;23.294;2023-02-08T12:55:19;157700.19;;;-3.26;89.64
42945;BME280;28584;42.636;23.294;2023-02-08T12:57:50;157681.72;;;-3.33;88.20
42945;BME280;28584;42.636;23.294;2023-02-08T13:00:22;157676.41;;;-3.35;86.58
42945;BME280;28584;42.636;23.294;2023-02-08T13:02:55;157700.19;;;-3.26;83.29
42945;BME280;28584;42.636;23.294;2023-02-08T13:05:27;157700.19;;;-3.26;85.80
42945;BME280;28584;42.636;23.294;2023-02-08T13:08:00;157771.50;;;-2.99;83.22
42945;BME280;28584;42.636;23.294;2023-02-08T13:10:37;157786.03;;;-2.94;78.57
42945;BME280;28584;42.636;23.294;2023-02-08T13:13:24;157775.47;;;-2.98;76.18
42945;BME280;28584;42.636;23.294;2023-02-08T13:16:00;157764.88;;;-3.02;76.87
42945;BME280;28584;42.636;23.294;2023-02-08T13:18:28;157783.41;;;-2.95;74.83
42945;BME280;28584;42.636;23.294;2023-02-08T13:21:05;157779.44;;;-2.96;73.57
42945;BME280;28584;42.636;23.294;2023-02-08T13:23:35;157763.59;;;-3.02;72.78
42945;BME280;28584;42.636;23.294;2023-02-08T13:26:14;157840.19;;;-2.73;72.35
42945;BME280;28584;42.636;23.294;2023-02-08T13:28:50;157791.28;;;-2.92;70.24
42945;BME280;28584;42.636;23.294;2023-02-08T13:31:24;157770.19;;;-3.00;70.10
42945;BME280;28584;42.636;23.294;2023-02-08T13:38:52;157758.28;;;-3.04;68.16
42945;BME280;28584;42.636;23.294;2023-02-08T13:41:21;157754.31;;;-3.06;68.88
42945;BME280;28584;42.636;23.294;2023-02-08T13:46:15;157693.59;;;-3.29;68.84
42945;BME280;28584;42.636;23.294;2023-02-08T13:56:42;157628.88;;;-3.53;72.07
42945;BME280;28584;42.636;23.294;2023-02-08T13:59:29;157615.72;;;-3.58;75.52
42945;BME280;28584;42.636;23.294;2023-02-08T14:02:25;157577.41;;;-3.73;79.12
42945;BME280;28584;42.636;23.294;2023-02-08T14:04:53;157511.44;;;-3.98;83.77
42945;BME280;28584;42.636;23.294;2023-02-08T14:17:49;157446.75;;;-4.22;88.63
42945;BME280;28584;42.636;23.294;2023-02-08T14:20:37;157475.78;;;-4.11;93.41
42945;BME280;28584;42.636;23.294;2023-02-08T14:23:23;157461.25;;;-4.17;92.62
42945;BME280;28584;42.636;23.294;2023-02-08T14:25:52;157465.22;;;-4.15;91.20
42945;BME280;28584;42.636;23.294;2023-02-08T14:30:51;157465.22;;;-4.15;95.47
42945;BME280;28584;42.636;23.294;2023-02-08T14:33:24;157462.59;;;-4.16;98.86
42945;BME280;28584;42.636;23.294;2023-02-08T14:35:57;157456.00;;;-4.19;100.00
42945;BME280;28584;42.636;23.294;2023-02-08T14:45:46;157417.75;;;-4.33;100.00
42945;BME280;28584;42.636;23.294;2023-02-08T14:48:41;157438.81;;;-4.25;100.00
42945;BME280;28584;42.636;23.294;2023-02-08T14:53:56;157379.47;;;-4.48;100.00
42945;BME280;28584;42.636;23.294;2023-02-08T14:56:34;157364.97;;;-4.53;100.00
42945;BME280;28584;42.636;23.294;2023-02-08T14:59:07;157379.47;;;-4.48;100.00
42945;BME280;28584;42.636;23.294;2023-02-08T15:01:45;157375.50;;;-4.49;100.00
42945;BME280;28584;42.636;23.294;2023-02-08T15:04:13;157367.59;;;-4.52;100.00
42945;BME280;28584;42.636;23.294;2023-02-08T15:09:35;157359.72;;;-4.55;100.00
42945;BME280;28584;42.636;23.294;2023-02-08T15:12:04;157345.22;;;-4.61;100.00
42945;BME280;28584;42.636;23.294;2023-02-08T15:14:34;157353.06;;;-4.58;100.00
42945;BME280;28584;42.636;23.294;2023-02-08T15:17:00;157349.13;;;-4.59;100.00
42945;BME280;28584;42.636;23.294;2023-02-08T15:19:31;157300.38;;;-4.78;100.00
42945;BME280;28584;42.636;23.294;2023-02-08T15:22:17;157293.75;;;-4.80;100.00
42945;BME280;28584;42.636;23.294;2023-02-08T15:24:57;157250.25;;;-4.97;100.00
42945;BME280;28584;42.636;23.294;2023-02-08T15:27:27;157248.91;;;-4.97;100.00
42945;BME280;28584;42.636;23.294;2023-02-08T15:29:53;157225.19;;;-5.06;100.00
42945;BME280;28584;42.636;23.294;2023-02-08T15:32:23;157177.75;;;-5.24;100.00
42945;BME280;28584;42.636;23.294;2023-02-08T15:34:53;157143.47;;;-5.37;100.00